Dour, Belgium
Current Conditions -  °F | °C
As of 9:34 AM on Sunday 26 Oct 2014 (Local Time) from EBCV Reporting Station
Broken Clouds Broken Clouds  
Wind Chill: 54°   Ceiling: 4400
Heat Index: 54°   Visibility: 4mi
Dew Point: 52°   Wind: 3mph
Humidity: 94%   Direction: 220°SW
Pressure: 30.27"   Gusts: NA
Location:  50.4°N, 3.78°E
Report Text: EBCV 260734Z AUTO 22003KT 7000 BKN044/// 12/11 Q1025 WHT
Loading
Personal Weather Stations






























Interactive Weather Map
Tropical Storm Tracking
New forecast layout! Learn more

10-Day Weather Forecast

Advertisements
Track Severe Weather on mobile